Time;durP1;ratioP1;P1;durP2;ratioP2;P2;SDS_P1;SDS_P2;PMS_P1;PMS_P2;Temp;Humidity;BMP_temperature;BMP_pressure;BME280_temperature;BME280_humidity;BME280_pressure;Samples;Min_cycle;Max_cycle;Signal;HPM_P1;HPM_P2
2022/09/27 00:02:15;;;;;;;30.10;21.90;;;;;;;8.41;87.80;98191.19;445996;1275;143031;-67
2022/09/27 00:12:21;;;;;;;34.20;20.70;;;;;;;8.52;88.16;98188.67;446724;1275;142589;-68
2022/09/27 00:22:28;;;;;;;39.10;23.60;;;;;;;8.59;88.49;98177.84;446860;1274;145914;-67
2022/09/27 00:32:34;;;;;;;42.80;23.50;;;;;;;8.61;88.85;98172.42;445931;1275;145972;-69
2022/09/27 00:42:39;;;;;;;38.10;25.50;;;;;;;8.72;89.37;98169.88;446692;1274;143724;-67
2022/09/27 00:52:54;;;;;;;39.30;25.20;;;;;;;8.83;89.85;98159.17;446615;1274;142761;-67
2022/09/27 01:03:00;;;;;;;38.10;25.00;;;;;;;8.93;89.97;98150.04;446069;1274;143020;-67
2022/09/27 01:13:19;;;;;;;39.90;27.10;;;;;;;9.03;90.57;98148.20;446825;1273;144739;-68
2022/09/27 01:23:55;;;;;;;48.80;27.60;;;;;;;9.17;90.95;98129.42;446042;1274;142545;-67
2022/09/27 01:34:07;;;;;;;39.90;26.30;;;;;;;9.30;90.89;98108.67;446835;1273;143352;-67
2022/09/27 01:44:21;;;;;;;36.90;24.70;;;;;;;9.37;90.97;98101.61;446074;1274;146001;-67
2022/09/27 01:54:32;;;;;;;34.60;25.00;;;;;;;9.42;91.17;98093.20;446687;1275;143226;-67
2022/09/27 02:04:41;;;;;;;44.90;25.20;;;;;;;9.48;91.39;98080.61;446799;1274;143955;-67
2022/09/27 02:14:52;;;;;;;28.20;22.30;;;;;;;9.40;91.22;98067.65;446086;1273;145614;-68
2022/09/27 02:25:02;;;;;;;29.70;22.90;;;;;;;9.35;91.30;98062.34;446884;1274;143221;-67
2022/09/27 02:35:13;;;;;;;29.70;20.70;;;;;;;9.30;91.49;98047.56;446035;1273;147615;-67
2022/09/27 02:45:20;;;;;;;24.10;19.30;;;;;;;9.27;91.37;98046.42;446661;1275;145038;-67
2022/09/27 02:55:37;;;;;;;30.70;20.70;;;;;;;9.13;91.34;98042.66;446855;1274;145914;-67
2022/09/27 03:05:47;;;;;;;24.90;20.00;;;;;;;9.05;91.48;98029.48;446077;1272;144376;-67
2022/09/27 03:15:53;;;;;;;24.50;19.60;;;;;;;9.03;91.37;98023.71;446519;1275;145057;-67
2022/09/27 03:26:03;;;;;;;24.00;19.10;;;;;;;8.99;91.59;98025.31;446103;1274;144301;-65
2022/09/27 03:36:11;;;;;;;24.40;19.40;;;;;;;8.92;91.75;98021.11;446842;1272;189235;-68
2022/09/27 03:46:17;;;;;;;22.00;18.50;;;;;;;8.85;91.83;98006.54;446833;1274;144043;-67
2022/09/27 03:56:22;;;;;;;27.40;19.30;;;;;;;8.81;92.04;97993.36;446054;1274;142530;-67
2022/09/27 04:06:28;;;;;;;24.00;21.00;;;;;;;8.73;92.13;97976.59;446788;1273;143162;-69
2022/09/27 04:16:34;;;;;;;39.90;19.80;;;;;;;8.69;92.24;97951.32;446725;1273;143159;-67
2022/09/27 04:26:40;;;;;;;40.30;20.10;;;;;;;8.59;92.45;97953.89;445962;1273;145110;-66
2022/09/27 04:36:46;;;;;;;31.10;18.70;;;;;;;8.56;92.68;97962.11;446867;1274;147068;-68
2022/09/27 04:46:51;;;;;;;26.30;19.90;;;;;;;8.55;92.96;97960.47;446780;1274;144650;-68
2022/09/27 04:56:57;;;;;;;20.80;16.10;;;;;;;8.48;93.16;97955.95;445763;1275;144632;-67
2022/09/27 05:07:03;;;;;;;21.80;17.60;;;;;;;8.40;93.22;97948.73;446600;1274;143029;-67
2022/09/27 05:17:09;;;;;;;24.20;18.60;;;;;;;8.52;93.40;97954.10;445763;1275;143874;-68
2022/09/27 05:27:19;;;;;;;23.40;18.20;;;;;;;8.61;93.55;97952.11;446559;1273;143203;-68
2022/09/27 05:37:24;;;;;;;28.40;17.50;;;;;;;8.67;93.29;97957.10;446648;1274;202050;-68
2022/09/27 05:47:30;;;;;;;22.30;17.00;;;;;;;8.85;93.43;97953.09;446048;1272;144577;-67
2022/09/27 05:57:35;;;;;;;20.30;17.20;;;;;;;9.01;93.37;97947.25;446928;1272;144789;-67
2022/09/27 06:07:41;;;;;;;27.40;20.10;;;;;;;9.25;92.95;97945.46;446994;1273;142845;-67
2022/09/27 06:17:47;;;;;;;27.60;18.70;;;;;;;9.47;93.04;97934.48;446279;1273;142784;-67
2022/09/27 06:27:53;;;;;;;22.40;18.20;;;;;;;9.89;92.55;97924.77;447029;1273;142987;-68
2022/09/27 06:38:02;;;;;;;19.50;16.90;;;;;;;10.19;91.32;97922.14;446852;1273;203258;-62
2022/09/27 06:48:11;;;;;;;17.90;14.70;;;;;;;10.61;90.24;97933.15;446977;1273;142514;-62
2022/09/27 07:08:40;;;;;;;19.10;16.10;;;;;;;11.96;88.28;97936.31;446045;1274;143609;-63
2022/09/27 07:18:47;;;;;;;14.20;12.70;;;;;;;13.81;83.41;97933.70;446959;1273;147756;-61
2022/09/27 07:28:53;;;;;;;13.40;12.10;;;;;;;13.81;81.73;97939.30;447018;1272;143178;-63
2022/09/27 07:39:00;;;;;;;15.00;13.50;;;;;;;13.91;79.66;97949.16;446232;1272;145727;-62
2022/09/27 07:49:05;;;;;;;16.10;14.50;;;;;;;14.04;78.08;97945.89;446989;1273;145685;-62
2022/09/27 07:59:11;;;;;;;20.70;15.80;;;;;;;13.91;77.62;97941.77;446262;1272;142888;-63
2022/09/27 08:09:17;;;;;;;18.10;16.30;;;;;;;13.83;77.19;97937.00;447031;1272;196988;-63
2022/09/27 08:19:22;;;;;;;18.10;15.10;;;;;;;13.92;77.17;97941.56;447049;1273;143302;-62
2022/09/27 08:29:28;;;;;;;17.80;15.90;;;;;;;14.65;75.90;97944.48;446251;1272;144654;-62
2022/09/27 08:39:34;;;;;;;22.20;19.90;;;;;;;15.13;74.47;97944.45;447019;1273;143447;-63
2022/09/27 08:49:45;;;;;;;23.30;21.00;;;;;;;15.75;73.51;97929.69;446886;1272;200854;-61
2022/09/27 09:00:05;;;;;;;25.40;22.90;;;;;;;16.57;71.95;97922.80;446096;1273;143457;-62
2022/09/27 09:21:03;;;;;;;24.90;22.40;;;;;;;17.11;68.78;97905.66;446282;1272;143704;-63
2022/09/27 09:31:20;;;;;;;27.20;24.50;;;;;;;16.98;68.34;97901.66;447024;1273;143437;-62
2022/09/27 09:41:32;;;;;;;27.20;24.30;;;;;;;16.95;68.09;97897.25;444767;1273;144378;-63
2022/09/27 09:51:44;;;;;;;24.30;21.90;;;;;;;17.46;67.43;97886.06;442121;1271;142696;-63
2022/09/27 10:01:49;;;;;;;23.50;21.20;;;;;;;16.86;66.74;97876.89;447081;1273;143463;-62
2022/09/27 10:11:56;;;;;;;22.80;20.70;;;;;;;16.41;67.10;97871.63;446326;1273;143747;-62
2022/09/27 10:22:12;;;;;;;20.00;18.10;;;;;;;16.24;67.20;97859.84;446628;1274;143269;-63
2022/09/27 10:32:26;;;;;;;18.90;17.10;;;;;;;16.14;67.62;97841.42;446303;1271;143190;-62
2022/09/27 10:42:37;;;;;;;16.80;15.20;;;;;;;15.74;68.05;97838.95;447077;1273;144146;-62
2022/09/27 10:52:43;;;;;;;16.60;15.00;;;;;;;15.60;68.23;97825.52;447068;1273;144610;-63
2022/09/27 11:02:54;;;;;;;13.80;12.50;;;;;;;15.49;68.60;97802.45;446248;1272;144222;-62
2022/09/27 11:13:13;;;;;;;15.00;13.40;;;;;;;15.58;68.45;97788.58;447065;1273;147297;-62
2022/09/27 11:23:41;;;;;;;14.50;13.10;;;;;;;15.57;68.58;97782.14;446279;1272;143013;-62
2022/09/27 11:33:58;;;;;;;12.50;11.40;;;;;;;15.57;68.96;97780.67;446851;1274;199850;-61
2022/09/27 11:44:34;;;;;;;11.40;10.40;;;;;;;15.53;68.95;97768.84;446297;1273;143025;-62
2022/09/27 11:54:54;;;;;;;10.80;9.70;;;;;;;15.88;68.54;97758.02;446825;1274;143720;-62
2022/09/27 12:05:16;;;;;;;9.10;8.20;;;;;;;16.11;68.24;97743.14;447047;1272;143383;-63
2022/09/27 12:15:26;;;;;;;8.60;7.80;;;;;;;16.43;66.91;97741.95;446754;1274;145942;-63
2022/09/27 12:25:35;;;;;;;9.40;8.50;;;;;;;16.60;66.68;97721.24;446924;1272;143999;-62
2022/09/27 12:35:49;;;;;;;7.40;6.70;;;;;;;16.71;65.84;97717.19;446330;1271;142581;-63
2022/09/27 12:46:05;;;;;;;8.40;7.60;;;;;;;16.82;65.13;97712.50;446719;1275;143213;-64
2022/09/27 12:56:35;;;;;;;7.60;6.90;;;;;;;16.70;65.14;97704.56;445812;1274;143983;-63
2022/09/27 13:06:57;;;;;;;7.30;6.70;;;;;;;16.60;65.11;97694.57;446719;1275;143632;-62
2022/09/27 13:17:03;;;;;;;6.70;6.20;;;;;;;16.48;65.15;97671.96;446173;1274;143352;-62
2022/09/27 13:27:37;;;;;;;7.10;6.40;;;;;;;16.64;64.72;97649.09;446355;1275;144328;-62
2022/09/27 13:37:54;;;;;;;7.30;6.60;;;;;;;16.86;64.62;97644.33;446793;1274;143863;-62
2022/09/27 13:48:01;;;;;;;6.20;5.70;;;;;;;16.92;63.73;97637.27;446253;1273;145268;-63
2022/09/27 13:58:20;;;;;;;6.10;5.40;;;;;;;16.57;63.76;97632.58;446907;1271;144298;-61
2022/09/27 14:08:32;;;;;;;5.60;5.10;;;;;;;16.37;64.19;97637.42;446295;1273;143455;-63
2022/09/27 14:18:49;;;;;;;7.70;6.00;;;;;;;16.12;63.97;97640.52;447009;1272;143549;-62
2022/09/27 14:28:55;;;;;;;6.70;6.00;;;;;;;16.05;64.04;97638.38;440646;1273;143085;-61
2022/09/27 14:39:01;;;;;;;17.40;10.80;;;;;;;16.03;65.55;97632.81;444725;1273;143583;-62
2022/09/27 14:49:21;;;;;;;10.30;9.40;;;;;;;15.84;67.54;97628.77;435834;1274;146650;-61
2022/09/27 14:59:32;;;;;;;11.70;10.60;;;;;;;15.52;68.70;97628.75;439753;1273;142754;-61
2022/09/27 15:09:39;;;;;;;11.50;10.10;;;;;;;15.29;69.79;97627.22;444087;1273;145299;-62
2022/09/27 15:19:58;;;;;;;12.50;11.20;;;;;;;15.10;71.06;97622.27;444674;1272;143137;-62
2022/09/27 15:30:04;;;;;;;12.00;10.80;;;;;;;14.96;72.07;97616.81;438846;1273;146086;-63
2022/09/27 15:40:54;;;;;;;17.60;12.70;;;;;;;14.77;72.90;97617.52;446950;1273;143146;-62
2022/09/27 15:51:01;;;;;;;17.50;12.10;;;;;;;14.56;73.95;97624.96;429057;1273;148713;-62
2022/09/27 16:01:08;;;;;;;14.20;12.70;;;;;;;14.32;74.87;97629.70;447053;1273;142682;-62
2022/09/27 16:11:16;;;;;;;4.70;3.90;;;;;;;14.14;75.31;97652.96;446225;1270;143874;-61
2022/09/27 16:21:22;;;;;;;4.70;4.00;;;;;;;13.67;75.38;97658.40;439034;1273;142175;-61
2022/09/27 16:31:27;;;;;;;5.40;4.30;;;;;;;13.12;76.59;97685.35;444705;1273;143084;-62
2022/09/27 16:41:34;;;;;;;5.00;3.10;;;;;;;12.60;77.56;97726.40;446259;1273;186132;-62
2022/09/27 17:02:04;;;;;;;4.20;2.90;;;;;;;11.88;79.65;97713.48;446530;1273;142996;-63
2022/09/27 17:12:10;;;;;;;1.40;0.70;;;;;;;11.71;80.52;97722.17;445848;1273;142903;-62
2022/09/27 17:22:16;;;;;;;1.10;0.90;;;;;;;11.45;80.24;97715.97;447077;1273;142171;-62
2022/09/27 17:32:23;;;;;;;1.30;0.80;;;;;;;11.08;80.20;97717.05;446249;1273;204330;-62
2022/09/27 17:42:29;;;;;;;1.30;1.20;;;;;;;10.83;80.76;97713.85;447028;1273;143407;-62
2022/09/27 17:52:35;;;;;;;4.00;1.70;;;;;;;10.74;81.54;97725.17;447027;1273;142667;-62
2022/09/27 18:02:40;;;;;;;4.90;3.90;;;;;;;10.62;81.82;97739.17;446315;1271;143161;-61
2022/09/27 18:12:46;;;;;;;6.20;4.10;;;;;;;10.47;82.11;97746.35;447067;1273;143507;-62
2022/09/27 18:22:52;;;;;;;14.40;9.90;;;;;;;10.44;82.82;97769.43;446836;1274;142934;-62
2022/09/27 18:32:58;;;;;;;10.50;8.20;;;;;;;10.44;83.26;97780.52;446232;1273;143794;-62
2022/09/27 18:43:04;;;;;;;12.00;10.20;;;;;;;10.36;83.39;97784.95;447020;1273;143127;-62
2022/09/27 18:53:10;;;;;;;9.70;8.60;;;;;;;10.30;83.36;97795.44;446328;1273;143717;-62
2022/09/27 19:03:16;;;;;;;10.70;8.50;;;;;;;10.23;83.83;97793.83;447090;1273;197806;-62
2022/09/27 19:13:21;;;;;;;6.90;5.40;;;;;;;10.20;84.12;97786.24;434843;1273;142702;-61
2022/09/27 19:23:33;;;;;;;21.80;13.80;;;;;;;10.13;84.55;97779.73;428822;1273;143219;-62
2022/09/27 19:33:39;;;;;;;13.80;10.50;;;;;;;10.05;84.95;97778.98;436048;1274;145294;-64
2022/09/27 19:43:49;;;;;;;19.50;16.80;;;;;;;9.96;85.47;97779.30;429962;1273;143881;-63
2022/09/27 19:53:55;;;;;;;14.60;13.10;;;;;;;9.93;85.86;97776.02;442904;1275;145546;-63
2022/09/27 20:04:02;;;;;;;7.80;6.30;;;;;;;9.84;86.14;97770.89;431599;1273;146705;-62
2022/09/27 20:14:07;;;;;;;10.00;8.00;;;;;;;9.78;86.27;97755.19;429502;1273;144710;-62
2022/09/27 20:24:13;;;;;;;9.40;8.50;;;;;;;9.76;86.70;97749.78;435574;1273;146890;-63
2022/09/27 20:34:19;;;;;;;11.50;10.30;;;;;;;9.76;87.05;97751.19;442195;1272;143251;-63
2022/09/27 20:44:25;;;;;;;12.50;11.20;;;;;;;9.78;87.49;97757.06;439940;1275;146037;-62
2022/09/27 20:54:31;;;;;;;11.20;10.00;;;;;;;9.78;87.72;97758.55;437545;1275;230056;-63
2022/09/27 21:04:37;;;;;;;13.50;11.50;;;;;;;9.80;87.98;97751.55;436617;1275;142435;-62
2022/09/27 21:14:43;;;;;;;12.60;9.90;;;;;;;9.79;87.91;97751.63;430837;1273;146249;-61
2022/09/27 21:24:48;;;;;;;10.80;9.30;;;;;;;9.77;88.39;97741.84;429557;1276;142464;-63
2022/09/27 21:34:54;;;;;;;9.50;8.60;;;;;;;9.75;88.65;97742.05;434164;1275;143281;-61
2022/09/27 21:45:00;;;;;;;8.50;6.20;;;;;;;9.75;88.82;97742.20;429555;1275;145658;-62
2022/09/27 21:55:07;;;;;;;6.40;5.30;;;;;;;9.77;88.98;97741.81;432172;1274;142004;-61
2022/09/27 22:05:13;;;;;;;5.30;4.80;;;;;;;9.80;89.15;97735.65;429323;1274;143365;-60
2022/09/27 22:15:21;;;;;;;5.80;5.20;;;;;;;9.79;89.09;97736.88;430616;1275;142619;-61
2022/09/27 22:25:28;;;;;;;6.20;5.50;;;;;;;9.82;89.41;97727.37;431665;1276;145519;-60
2022/09/27 22:35:33;;;;;;;10.50;7.10;;;;;;;9.88;89.55;97729.66;430544;1276;141688;-63
2022/09/27 22:45:39;;;;;;;8.40;7.00;;;;;;;9.92;89.70;97731.05;430748;1273;143617;-62
2022/09/27 22:55:55;;;;;;;6.70;6.10;;;;;;;9.93;89.87;97735.70;431431;1274;147916;-62
2022/09/27 23:06:06;;;;;;;7.70;6.80;;;;;;;9.80;89.82;97735.23;432267;1275;142117;-62
2022/09/27 23:16:13;;;;;;;8.00;7.30;;;;;;;9.65;89.63;97737.13;430349;1275;149278;-62
2022/09/27 23:26:22;;;;;;;7.80;6.60;;;;;;;9.46;89.73;97729.70;430360;1273;142641;-62
2022/09/27 23:36:28;;;;;;;7.90;7.00;;;;;;;9.31;90.09;97733.86;430851;1273;142249;-64
2022/09/27 23:46:36;;;;;;;6.40;5.80;;;;;;;9.21;89.95;97727.52;430536;1275;146190;-62
2022/09/27 23:56:42;;;;;;;6.60;5.00;;;;;;;9.04;89.86;97737.09;432637;1273;142503;-62
